createdAt,value
2019-04-30T00:00:55.461Z,7.30
2019-04-30T00:03:25.919Z,7.08
2019-04-30T00:05:57.380Z,7.85
2019-04-30T00:08:25.846Z,7.78
2019-04-30T00:10:55.869Z,8.38
2019-04-30T00:13:25.902Z,8.88
2019-04-30T00:16:00.032Z,7.60
2019-04-30T00:18:25.535Z,8.60
2019-04-30T00:20:55.322Z,7.70
2019-04-30T00:23:27.207Z,10.32
2019-04-30T00:25:58.409Z,8.30
2019-04-30T00:28:25.632Z,12.47
2019-04-30T00:30:56.172Z,9.20
2019-04-30T00:33:27.471Z,12.10
2019-04-30T00:35:57.964Z,9.35
2019-04-30T00:38:29.463Z,9.95
2019-04-30T00:40:57.837Z,10.05
2019-04-30T00:43:26.956Z,11.55
2019-04-30T00:45:55.815Z,10.03
2019-04-30T00:48:30.303Z,10.30
2019-04-30T00:50:55.760Z,9.55
2019-04-30T00:53:26.265Z,9.85
2019-04-30T00:55:55.634Z,12.50
2019-04-30T00:58:30.271Z,12.85
2019-04-30T01:01:15.232Z,11.93
2019-04-30T01:03:49.394Z,11.03
2019-04-30T01:06:24.013Z,9.58
2019-04-30T01:08:47.426Z,7.53
2019-04-30T01:11:16.731Z,8.20
2019-04-30T01:13:49.886Z,10.35
2019-04-30T01:16:16.066Z,8.68
2019-04-30T01:18:44.971Z,11.35
2019-04-30T01:21:13.758Z,11.48
2019-04-30T01:23:51.784Z,10.95
2019-04-30T01:26:13.490Z,11.20
2019-04-30T01:28:42.316Z,14.63
2019-04-30T01:31:11.187Z,10.88
2019-04-30T01:33:40.005Z,11.05
2019-04-30T01:36:13.233Z,11.40
2019-04-30T01:38:40.366Z,10.95
2019-04-30T01:41:09.822Z,11.33
2019-04-30T01:43:38.686Z,10.85
2019-04-30T01:46:09.337Z,11.00
2019-04-30T01:48:39.308Z,10.82
2019-04-30T01:51:08.962Z,14.23
2019-04-30T01:53:38.761Z,10.65
2019-04-30T01:56:09.312Z,13.35
2019-04-30T01:58:51.951Z,10.70
2019-04-30T02:01:22.356Z,10.88
2019-04-30T02:03:51.171Z,10.00
2019-04-30T02:06:20.011Z,11.73
2019-04-30T02:08:49.359Z,9.95
2019-04-30T02:11:19.009Z,13.88
2019-04-30T02:13:49.268Z,10.70
2019-04-30T02:16:20.895Z,11.65
2019-04-30T02:18:49.441Z,11.57
2019-04-30T02:21:19.529Z,11.63
2019-04-30T02:23:49.340Z,11.08
2019-04-30T02:26:18.840Z,13.40
2019-04-30T02:28:49.499Z,12.23
2019-04-30T02:31:22.348Z,14.18
2019-04-30T02:33:50.482Z,11.75
2019-04-30T02:36:40.059Z,12.47
2019-04-30T02:39:11.117Z,15.03
2019-04-30T02:41:41.110Z,11.28
2019-04-30T02:44:12.239Z,11.43
2019-04-30T02:46:43.670Z,14.33
2019-04-30T02:49:14.813Z,11.75
2019-04-30T02:51:45.960Z,13.68
2019-04-30T02:54:20.316Z,12.43
2019-04-30T02:56:50.680Z,15.98
2019-04-30T02:59:20.287Z,12.95
2019-04-30T03:01:50.187Z,13.35
2019-04-30T03:04:19.765Z,11.30
2019-04-30T03:06:50.301Z,11.50
2019-04-30T03:09:20.154Z,15.90
2019-04-30T03:11:50.109Z,13.83
2019-04-30T03:14:20.081Z,14.20
2019-04-30T03:16:53.168Z,15.28
2019-04-30T03:19:40.301Z,12.88
2019-04-30T03:22:10.876Z,15.55
2019-04-30T03:24:42.657Z,13.00
2019-04-30T03:27:10.143Z,14.20
2019-04-30T03:29:40.576Z,15.13
2019-04-30T03:32:13.674Z,14.90
2019-04-30T03:34:41.976Z,17.25
2019-04-30T03:37:10.481Z,14.90
2019-04-30T03:39:40.024Z,12.55
2019-04-30T03:42:09.899Z,13.45
2019-04-30T03:44:40.228Z,14.87
2019-04-30T03:47:11.063Z,11.83
2019-04-30T03:49:40.425Z,13.15
2019-04-30T03:52:12.878Z,11.65
2019-04-30T03:54:40.776Z,13.20
2019-04-30T03:57:10.657Z,11.97
2019-04-30T03:59:40.074Z,12.55
2019-04-30T04:02:22.601Z,14.70
2019-04-30T04:07:43.819Z,13.98
2019-04-30T04:10:20.133Z,12.78
2019-04-30T04:12:49.799Z,12.58
2019-04-30T04:15:19.903Z,17.17
2019-04-30T04:17:50.355Z,12.28
2019-04-30T04:20:20.293Z,12.20
2019-04-30T04:22:49.887Z,13.05
2019-04-30T04:25:20.350Z,17.70
2019-04-30T04:27:50.872Z,14.20
2019-04-30T04:30:21.355Z,13.75
2019-04-30T04:32:50.321Z,11.40
2019-04-30T04:35:19.976Z,12.10
2019-04-30T04:37:49.778Z,11.65
2019-04-30T04:40:20.959Z,12.00
2019-04-30T04:42:49.557Z,10.75
2019-04-30T04:45:19.833Z,11.65
2019-04-30T04:47:50.427Z,12.35
2019-04-30T04:50:20.079Z,9.90
2019-04-30T04:52:49.718Z,13.98
2019-04-30T04:55:21.782Z,12.73
2019-04-30T04:57:50.046Z,12.33
2019-04-30T05:00:19.935Z,15.98
2019-04-30T05:02:50.311Z,12.55
2019-04-30T05:05:19.529Z,11.78
2019-04-30T05:07:48.750Z,12.10
2019-04-30T05:10:19.071Z,11.63
2019-04-30T05:12:50.618Z,12.40
2019-04-30T05:15:19.479Z,10.65
2019-04-30T05:17:49.411Z,11.95
2019-04-30T05:20:19.428Z,11.38
2019-04-30T05:22:48.894Z,10.00
2019-04-30T05:25:18.641Z,12.10
2019-04-30T05:27:48.831Z,12.00
2019-04-30T05:30:19.823Z,8.55
2019-04-30T05:32:50.704Z,13.55
2019-04-30T05:35:19.558Z,9.05
2019-04-30T05:37:49.530Z,7.12
2019-04-30T05:40:19.017Z,9.13
2019-04-30T05:42:49.663Z,8.30
2019-04-30T05:45:19.262Z,10.45
2019-04-30T05:47:50.238Z,9.70
2019-04-30T05:50:20.027Z,9.13
2019-04-30T05:52:49.393Z,6.62
2019-04-30T05:55:19.821Z,6.22
2019-04-30T05:57:56.055Z,8.73
2019-04-30T06:00:19.776Z,7.83
2019-04-30T06:02:49.682Z,6.35
2019-04-30T06:05:18.967Z,7.05
2019-04-30T06:07:51.645Z,8.90
2019-04-30T06:10:22.971Z,11.85
2019-04-30T06:12:59.505Z,13.20
2019-04-30T06:15:33.500Z,13.53
2019-04-30T06:18:10.783Z,13.48
2019-04-30T06:20:32.861Z,14.50
2019-04-30T06:23:01.730Z,13.48
2019-04-30T06:25:37.265Z,13.80
2019-04-30T06:28:01.834Z,13.60
2019-04-30T06:30:31.660Z,14.55
2019-04-30T06:33:01.307Z,13.88
2019-04-30T06:35:30.135Z,18.67
2019-04-30T06:37:59.169Z,15.98
2019-04-30T06:40:29.308Z,15.78
2019-04-30T06:43:00.716Z,18.35
2019-04-30T06:45:31.510Z,18.65
2019-04-30T06:48:03.561Z,18.50
2019-04-30T06:50:32.503Z,17.45
2019-04-30T06:53:01.759Z,19.60
2019-04-30T06:55:31.006Z,15.88
2019-04-30T06:58:11.571Z,17.65
2019-04-30T07:00:40.231Z,16.10
2019-04-30T07:03:09.670Z,16.57
2019-04-30T07:05:39.244Z,17.02
2019-04-30T07:08:36.408Z,14.60
2019-04-30T07:11:14.043Z,15.70
2019-04-30T07:13:44.683Z,13.32
2019-04-30T07:16:13.538Z,15.65
2019-04-30T07:18:42.357Z,17.52
2019-04-30T07:21:11.236Z,21.48
2019-04-30T07:23:40.084Z,12.82
2019-04-30T07:26:09.193Z,14.25
2019-04-30T07:28:44.803Z,15.20
2019-04-30T07:31:14.411Z,17.48
2019-04-30T07:33:39.771Z,11.28
2019-04-30T07:36:09.692Z,12.45
2019-04-30T07:38:43.136Z,10.88
2019-04-30T07:41:09.677Z,12.73
2019-04-30T07:43:39.329Z,13.05
2019-04-30T07:46:09.335Z,11.55
2019-04-30T07:48:40.275Z,18.30
2019-04-30T07:51:10.341Z,9.23
2019-04-30T07:53:40.446Z,11.38
2019-04-30T07:56:23.919Z,8.23
2019-04-30T07:58:40.245Z,9.40
2019-04-30T08:01:10.429Z,11.15
2019-04-30T08:03:44.391Z,10.30
2019-04-30T08:06:14.489Z,10.13
2019-04-30T08:08:43.262Z,10.03
2019-04-30T08:11:23.006Z,9.85
2019-04-30T08:13:43.166Z,7.33
2019-04-30T08:16:12.439Z,6.87
2019-04-30T08:18:41.262Z,9.13
2019-04-30T08:21:10.136Z,8.35
2019-04-30T08:23:39.776Z,6.72
2019-04-30T08:26:08.958Z,5.62
2019-04-30T08:28:38.695Z,9.28
2019-04-30T08:31:08.986Z,9.15
2019-04-30T08:33:40.070Z,4.78
2019-04-30T08:36:09.465Z,4.47
2019-04-30T08:38:39.439Z,5.62
2019-04-30T08:41:09.364Z,6.35
2019-04-30T08:43:39.454Z,4.47
2019-04-30T08:46:09.403Z,6.92
2019-04-30T08:48:49.941Z,3.33
2019-04-30T08:51:10.683Z,6.80
2019-04-30T08:53:41.117Z,7.70
2019-04-30T08:56:10.198Z,8.88
2019-04-30T08:58:39.182Z,6.72
2019-04-30T09:01:08.779Z,3.30
2019-04-30T09:03:39.304Z,5.15
2019-04-30T09:06:09.845Z,5.75
2019-04-30T09:08:40.030Z,4.50
2019-04-30T09:11:21.797Z,5.08
2019-04-30T09:13:39.810Z,5.72
2019-04-30T09:16:09.301Z,7.87
2019-04-30T09:18:39.346Z,7.42
2019-04-30T09:21:08.988Z,8.43
2019-04-30T09:23:47.375Z,4.95
2019-04-30T09:26:08.740Z,8.45
2019-04-30T09:28:40.725Z,7.17
2019-04-30T09:31:08.720Z,6.15
2019-04-30T09:33:39.387Z,5.67
2019-04-30T09:36:09.172Z,5.50
2019-04-30T09:38:38.959Z,9.03
2019-04-30T09:41:09.316Z,4.45
2019-04-30T09:43:40.422Z,4.85
2019-04-30T09:46:19.015Z,6.15
2019-04-30T09:48:39.501Z,6.15
2019-04-30T09:51:10.691Z,5.97
2019-04-30T09:53:39.468Z,6.50
2019-04-30T09:56:09.568Z,9.88
2019-04-30T09:58:39.330Z,4.50
2019-04-30T10:01:09.442Z,6.53
2019-04-30T10:03:39.190Z,9.80
2019-04-30T10:06:08.999Z,5.33
2019-04-30T10:08:47.978Z,7.08
2019-04-30T10:11:25.017Z,4.58
2019-04-30T10:13:53.824Z,7.45
2019-04-30T10:16:30.035Z,5.78
2019-04-30T10:19:01.227Z,6.58
2019-04-30T10:21:29.764Z,8.28
2019-04-30T10:24:11.884Z,5.92
2019-04-30T10:26:29.106Z,5.47
2019-04-30T10:28:58.633Z,5.95
2019-04-30T10:31:29.336Z,6.12
2019-04-30T10:33:58.629Z,5.20
2019-04-30T10:36:29.430Z,7.35
2019-04-30T10:38:59.489Z,4.45
2019-04-30T10:41:29.044Z,5.33
2019-04-30T10:43:59.142Z,5.97
2019-04-30T10:46:28.148Z,5.62
2019-04-30T10:48:56.964Z,6.12
2019-04-30T10:51:25.865Z,5.90
2019-04-30T10:53:54.670Z,6.72
2019-04-30T10:56:23.529Z,11.12
2019-04-30T10:58:52.348Z,2.17
2019-04-30T11:01:21.189Z,2.58
2019-04-30T11:03:49.998Z,4.92
2019-04-30T11:06:19.199Z,5.92
2019-04-30T11:08:48.319Z,2.55
2019-04-30T11:11:17.123Z,6.00
2019-04-30T11:13:45.981Z,7.40
2019-04-30T11:16:15.628Z,9.48
2019-04-30T11:18:44.965Z,2.70
2019-04-30T11:21:14.177Z,2.10
2019-04-30T11:23:43.179Z,1.70
2019-04-30T11:26:12.820Z,2.60
2019-04-30T11:28:41.947Z,5.42
2019-04-30T11:31:24.545Z,3.58
2019-04-30T11:33:56.176Z,3.02
2019-04-30T11:36:29.158Z,3.83
2019-04-30T11:38:58.671Z,5.83
2019-04-30T11:41:30.898Z,4.12
2019-04-30T11:43:59.506Z,5.75
2019-04-30T11:46:49.512Z,6.85
2019-04-30T11:49:18.475Z,47.53
2019-04-30T11:51:47.316Z,7.03
2019-04-30T11:54:16.168Z,4.83
2019-04-30T11:56:45.031Z,6.65
2019-04-30T11:59:13.851Z,7.65
2019-04-30T12:01:42.695Z,9.53
2019-04-30T12:04:11.515Z,6.70
2019-04-30T12:06:40.372Z,7.22
2019-04-30T12:09:11.979Z,7.17
2019-04-30T12:11:42.401Z,9.55
2019-04-30T12:14:11.221Z,8.05
2019-04-30T12:16:40.042Z,13.32
2019-04-30T12:19:09.106Z,7.35
2019-04-30T12:21:38.133Z,11.18
2019-04-30T12:24:06.986Z,9.05
2019-04-30T12:26:35.802Z,9.38
2019-04-30T12:29:04.626Z,13.75
2019-04-30T12:31:33.471Z,14.28
2019-04-30T12:34:02.283Z,10.18
2019-04-30T12:36:31.155Z,7.80
2019-04-30T12:39:00.023Z,8.53
2019-04-30T12:41:28.819Z,7.90
2019-04-30T12:43:57.601Z,9.60
2019-04-30T12:46:26.421Z,10.23
2019-04-30T12:48:56.839Z,9.28
2019-04-30T12:51:45.930Z,11.88
2019-04-30T12:54:15.751Z,13.08
2019-04-30T12:57:02.347Z,9.20
2019-04-30T12:59:31.225Z,10.08
2019-04-30T13:02:00.056Z,8.80
2019-04-30T13:04:29.323Z,8.23
2019-04-30T13:07:01.576Z,7.50
2019-04-30T13:09:30.136Z,10.80
2019-04-30T13:12:00.858Z,9.58
2019-04-30T13:14:31.308Z,12.13
2019-04-30T13:17:00.462Z,10.40
2019-04-30T13:19:29.330Z,10.25
2019-04-30T13:21:59.031Z,8.78
2019-04-30T13:24:31.185Z,12.30
2019-04-30T13:26:59.538Z,10.03
2019-04-30T13:29:33.133Z,13.38
2019-04-30T13:32:01.965Z,12.53
2019-04-30T13:34:50.373Z,11.83
2019-04-30T13:37:19.259Z,9.48
2019-04-30T13:39:52.864Z,9.65
2019-04-30T13:44:49.749Z,9.88
2019-04-30T13:47:19.212Z,10.88
2019-04-30T13:49:49.516Z,10.20
2019-04-30T13:52:18.727Z,11.08
2019-04-30T13:54:47.610Z,12.18
2019-04-30T13:57:16.425Z,10.05
2019-04-30T13:59:45.283Z,11.88
2019-04-30T14:02:14.190Z,10.93
2019-04-30T14:04:47.601Z,9.53
2019-04-30T14:07:17.982Z,12.40
2019-04-30T14:09:46.955Z,10.90
2019-04-30T14:12:15.912Z,11.43
2019-04-30T14:14:44.753Z,13.30
2019-04-30T14:17:13.595Z,13.15
2019-04-30T14:19:42.421Z,12.20
2019-04-30T14:22:11.292Z,13.03
2019-04-30T14:24:40.104Z,16.57
2019-04-30T14:27:09.277Z,13.48
2019-04-30T14:29:39.558Z,14.68
2019-04-30T14:32:08.762Z,14.35
2019-04-30T14:34:39.454Z,15.60
2019-04-30T14:37:08.104Z,17.15
2019-04-30T14:39:37.216Z,17.70
2019-04-30T14:42:10.036Z,18.05
2019-04-30T14:44:39.945Z,19.12
2019-04-30T14:47:15.902Z,15.93
2019-04-30T14:50:01.674Z,17.55
2019-04-30T14:52:23.486Z,17.73
2019-04-30T14:54:58.655Z,18.67
2019-04-30T14:57:45.483Z,15.72
2019-04-30T15:00:33.112Z,16.10
2019-04-30T15:03:03.526Z,14.20
2019-04-30T15:05:38.972Z,13.78
2019-04-30T15:08:02.880Z,13.45
2019-04-30T15:10:31.837Z,11.88
2019-04-30T15:13:02.630Z,13.32
2019-04-30T15:15:31.243Z,13.30
2019-04-30T15:18:00.064Z,11.35
2019-04-30T15:20:29.673Z,13.13
2019-04-30T15:23:09.091Z,10.95
2019-04-30T15:25:38.823Z,13.05
2019-04-30T15:28:09.742Z,12.37
2019-04-30T15:30:38.884Z,12.35
2019-04-30T15:33:10.182Z,10.10
2019-04-30T15:35:39.033Z,10.82
2019-04-30T15:38:09.473Z,11.00
2019-04-30T15:40:38.841Z,13.38
2019-04-30T15:43:07.649Z,13.72
2019-04-30T15:45:36.501Z,10.93
2019-04-30T15:48:05.329Z,12.00
2019-04-30T15:50:34.176Z,12.28
2019-04-30T15:53:03.006Z,13.20
2019-04-30T15:55:31.858Z,14.00
2019-04-30T15:58:05.282Z,11.97
2019-04-30T16:00:34.222Z,10.90
2019-04-30T16:03:04.612Z,10.78
2019-04-30T16:05:35.146Z,11.18
2019-04-30T16:08:08.884Z,10.30
2019-04-30T16:10:42.644Z,10.68
2019-04-30T16:13:30.359Z,17.23
2019-04-30T16:15:59.151Z,10.70
2019-04-30T16:18:30.402Z,9.08
2019-04-30T16:20:59.499Z,10.88
2019-04-30T16:23:28.367Z,12.00
2019-04-30T16:25:57.196Z,11.08
2019-04-30T16:28:26.061Z,11.75
2019-04-30T16:30:54.871Z,10.25
2019-04-30T16:33:23.718Z,12.68
2019-04-30T16:35:54.844Z,12.45
2019-04-30T16:38:22.982Z,12.43
2019-04-30T16:40:51.819Z,12.20
2019-04-30T16:43:20.621Z,10.45
2019-04-30T16:45:49.655Z,8.15
2019-04-30T16:48:19.316Z,11.95
2019-04-30T16:50:51.203Z,16.70
2019-04-30T16:53:19.445Z,19.50
2019-04-30T16:55:50.029Z,17.82
2019-04-30T16:58:19.628Z,19.32
2019-04-30T17:00:49.325Z,14.95
2019-04-30T17:03:35.338Z,15.63
2019-04-30T17:06:15.087Z,17.40
2019-04-30T17:08:49.455Z,21.30
2019-04-30T17:11:38.589Z,19.50
2019-04-30T17:14:07.988Z,17.57
2019-04-30T17:16:39.043Z,16.45
2019-04-30T17:19:09.058Z,15.93
2019-04-30T17:21:37.889Z,22.05
2019-04-30T17:24:08.664Z,17.42
2019-04-30T17:26:39.106Z,18.75
2019-04-30T17:29:09.502Z,20.20
2019-04-30T17:31:38.134Z,16.45
2019-04-30T17:34:06.940Z,17.87
2019-04-30T17:36:35.715Z,18.62
2019-04-30T17:39:09.075Z,16.85
2019-04-30T17:42:26.624Z,16.37
2019-04-30T17:44:58.715Z,15.80
2019-04-30T17:47:25.904Z,18.82
2019-04-30T17:49:54.711Z,20.05
2019-04-30T17:52:25.123Z,15.30
2019-04-30T17:54:53.948Z,19.50
2019-04-30T17:57:31.378Z,19.52
2019-04-30T17:59:53.330Z,20.75
2019-04-30T18:02:23.125Z,20.88
2019-04-30T18:04:51.984Z,21.60
2019-04-30T18:07:20.821Z,19.32
2019-04-30T18:09:49.870Z,22.70
2019-04-30T18:12:19.544Z,20.10
2019-04-30T18:14:49.496Z,19.70
2019-04-30T18:17:18.375Z,18.07
2019-04-30T18:19:49.775Z,18.05
2019-04-30T18:22:36.693Z,20.12
2019-04-30T18:25:08.040Z,21.75
2019-04-30T18:27:45.971Z,20.13
2019-04-30T18:30:11.024Z,21.68
2019-04-30T18:32:39.854Z,20.02
2019-04-30T18:35:08.672Z,23.45
2019-04-30T18:37:38.719Z,21.15
2019-04-30T18:40:09.625Z,17.77
2019-04-30T18:42:39.578Z,15.68
2019-04-30T18:45:09.145Z,16.23
2019-04-30T18:47:39.218Z,12.50
2019-04-30T18:50:09.306Z,11.45
2019-04-30T18:52:38.898Z,12.13
2019-04-30T18:55:09.304Z,9.90
2019-04-30T18:57:38.249Z,13.78
2019-04-30T19:00:09.995Z,11.50
2019-04-30T19:02:40.370Z,10.10
2019-04-30T19:05:10.595Z,8.88
2019-04-30T19:07:46.785Z,12.13
2019-04-30T19:10:17.172Z,9.40
2019-04-30T19:13:03.405Z,9.65
2019-04-30T19:16:17.645Z,11.03
2019-04-30T19:18:37.027Z,10.10
2019-04-30T19:21:08.945Z,12.25
2019-04-30T19:23:39.062Z,11.73
2019-04-30T19:26:08.243Z,8.88
2019-04-30T19:28:38.713Z,8.85
2019-04-30T19:31:09.217Z,9.75
2019-04-30T19:33:38.924Z,7.95
2019-04-30T19:36:09.848Z,8.78
2019-04-30T19:38:38.923Z,7.78
2019-04-30T19:41:10.465Z,8.55
2019-04-30T19:43:39.106Z,8.88
2019-04-30T19:46:09.151Z,7.28
2019-04-30T19:48:38.309Z,8.43
2019-04-30T19:51:08.832Z,7.72
2019-04-30T19:53:39.499Z,10.68
2019-04-30T19:56:08.325Z,9.43
2019-04-30T19:58:50.039Z,8.53
2019-04-30T20:01:09.386Z,8.10
2019-04-30T20:03:38.144Z,8.08
2019-04-30T20:06:08.918Z,8.55
2019-04-30T20:08:38.737Z,10.32
2019-04-30T20:11:07.785Z,7.35
2019-04-30T20:13:37.355Z,5.55
2019-04-30T20:16:06.374Z,5.78
2019-04-30T20:18:35.231Z,7.22
2019-04-30T20:21:05.852Z,6.65
2019-04-30T20:23:34.722Z,8.20
2019-04-30T20:26:03.555Z,6.25
2019-04-30T20:28:39.099Z,8.50
2019-04-30T20:31:02.865Z,9.23
2019-04-30T20:33:31.712Z,8.55
2019-04-30T20:36:00.563Z,7.55
2019-04-30T20:38:39.982Z,6.92
2019-04-30T20:41:10.642Z,6.15
2019-04-30T20:43:39.558Z,5.47
2019-04-30T20:46:08.666Z,8.28
2019-04-30T20:48:39.332Z,7.62
2019-04-30T20:51:09.585Z,8.53
2019-04-30T20:53:39.333Z,10.23
2019-04-30T20:56:09.315Z,9.65
2019-04-30T20:58:40.501Z,9.80
2019-04-30T21:01:09.554Z,9.78
2019-04-30T21:03:39.547Z,10.23
2019-04-30T21:06:08.897Z,10.32
2019-04-30T21:08:38.075Z,12.68
2019-04-30T21:11:06.923Z,10.68
2019-04-30T21:13:35.786Z,12.23
2019-04-30T21:16:05.021Z,10.85
2019-04-30T21:18:33.885Z,11.63
2019-04-30T21:21:02.694Z,12.23
2019-04-30T21:23:31.578Z,12.98
2019-04-30T21:26:00.437Z,11.25
2019-04-30T21:28:29.821Z,13.90
2019-04-30T21:31:00.516Z,14.07
2019-04-30T21:33:38.495Z,14.15
2019-04-30T21:36:08.980Z,10.78
2019-04-30T21:38:38.948Z,11.03
2019-04-30T21:41:09.945Z,10.53
2019-04-30T21:43:38.578Z,12.15
2019-04-30T21:46:09.348Z,13.88
2019-04-30T21:48:38.881Z,11.70
2019-04-30T21:51:09.405Z,9.90
2019-04-30T21:53:39.668Z,11.80
2019-04-30T21:56:08.864Z,12.43
2019-04-30T21:58:39.265Z,12.37
2019-04-30T22:01:14.736Z,14.10
2019-04-30T22:03:45.265Z,14.60
2019-04-30T22:06:14.091Z,13.78
2019-04-30T22:08:42.950Z,12.73
2019-04-30T22:11:11.786Z,11.65
2019-04-30T22:13:43.066Z,12.10
2019-04-30T22:16:11.134Z,13.95
2019-04-30T22:18:39.954Z,11.75
2019-04-30T22:21:08.796Z,10.68
2019-04-30T22:23:37.622Z,10.85
2019-04-30T22:26:06.468Z,13.75
2019-04-30T22:28:35.292Z,12.80
2019-04-30T22:31:04.181Z,11.55
2019-04-30T22:33:33.009Z,15.28
2019-04-30T22:36:03.419Z,14.13
2019-04-30T22:38:40.382Z,11.05
2019-04-30T22:41:09.195Z,11.60
2019-04-30T22:43:38.121Z,14.63
2019-04-30T22:46:09.772Z,12.60
2019-04-30T22:48:38.931Z,12.28
2019-04-30T22:51:07.737Z,10.53
2019-04-30T22:53:37.493Z,13.15
2019-04-30T22:56:06.313Z,9.73
2019-04-30T22:58:35.162Z,11.12
2019-04-30T23:01:21.688Z,13.10
2019-04-30T23:03:52.114Z,10.80
2019-04-30T23:06:20.941Z,10.75
2019-04-30T23:08:49.791Z,12.10
2019-04-30T23:11:18.635Z,11.73
2019-04-30T23:13:47.479Z,13.25
2019-04-30T23:16:16.302Z,12.75
2019-04-30T23:18:45.160Z,12.98
2019-04-30T23:21:13.983Z,11.30
2019-04-30T23:23:42.841Z,10.75
2019-04-30T23:26:11.651Z,9.38
2019-04-30T23:28:40.499Z,10.95
2019-04-30T23:31:09.320Z,12.85
2019-04-30T23:33:38.181Z,10.65
2019-04-30T23:36:07.047Z,9.70
2019-04-30T23:38:35.870Z,8.40
2019-04-30T23:41:04.745Z,11.88
2019-04-30T23:43:33.547Z,8.83
2019-04-30T23:46:02.418Z,10.93
2019-04-30T23:48:31.233Z,8.63
2019-04-30T23:51:00.090Z,12.28
2019-04-30T23:53:28.899Z,8.03
2019-04-30T23:55:57.755Z,8.75
2019-04-30T23:58:26.591Z,8.18
